Etusivu
METAR-TAF:

METAR-TAF

Lentoasemat :

Fort Hood / Killeen, Texas, Yhdysvallat

Leveyspiiri: 31-06N, Pituuspiiri: 097-20W, korkeus merenpinnasta: 283 m

Tämänhetkinen sää

Tämä raportti tehtiin 14 minuuttia sitten, kello 15.55 UTC
Tuuli 13 kn pohjoisesta/koillisesta puuskistuen 24 kn:hen
Lämpötila 7°C
Kosteus 87%
Ilmanpaine 1024 hPa
Näkyvyys: 11.3 km
Pilvistä 5500 ft:n korkeudessa
ukkosmyrsky, heikkoa sadetta

METAR: KHLR 011555Z 02013G24KT 7SM -TSRA OVC055 07/05 A3024 RMK AO2A PRESRR SLP240 T00670051 PNO $

Aika: 09:09 (16:09 UTC)


TAF: puuttuu

Säähavainnot ja -ennusteet yli 4000 lentoasemalta (METAR- ja TAF-raportit).

Käytössä olevat sääasemat on merkitty karttaan keltaisilla ja punaisilla pisteillä.

Aseta hiiri pisteen päälle nähdäksesi sääaseman nimen.

Klikkaa sitten nähdäksesi säähavainnot ja -ennusteet.

Kartan vaihtaminen: klikkaa mustalla rastilla varustettuja vihreitä pisteitä, niin voit zoomata sisään; viivalla varustettua vihreää pistettä, niin voit zoomata ulos tai vihreitä nuolia, niin pääset viereisille kartoille.


METAR-TAF: